Time;durP1;ratioP1;P1;durP2;ratioP2;P2;SDS_P1;SDS_P2;PMS_P1;PMS_P2;Temp;Humidity;BMP_temperature;BMP_pressure;BME280_temperature;BME280_humidity;BME280_pressure;Samples;Min_cycle;Max_cycle;Signal;HPM_P1;HPM_P2
2023/08/10 00:01:52;;;;;;;6.53;3.50;;;23.00;82.00;;;;;;4977394;28;20037;-79
2023/08/10 00:04:19;;;;;;;4.70;3.40;;;23.00;82.00;;;;;;4962976;28;20038;-79
2023/08/10 00:06:45;;;;;;;4.77;3.20;;;23.00;82.10;;;;;;4995327;28;20035;-79
2023/08/10 00:09:11;;;;;;;6.00;3.25;;;23.00;82.10;;;;;;4985756;28;20088;-79
2023/08/10 00:11:38;;;;;;;3.35;3.05;;;22.90;82.30;;;;;;4987990;28;20034;-79
2023/08/10 00:14:04;;;;;;;;;;;22.90;82.30;;;;;;4969764;28;20051;-79
2023/08/10 00:16:31;;;;;;;5.00;3.70;;;22.90;79.90;;;;;;4991664;28;19910;-79
2023/08/10 00:18:57;;;;;;;3.95;3.38;;;22.80;82.50;;;;;;4965237;28;20033;-79
2023/08/10 00:21:23;;;;;;;3.87;3.23;;;22.80;83.10;;;;;;4989656;28;20026;-79
2023/08/10 00:23:49;;;;;;;4.78;3.20;;;22.80;83.00;;;;;;4981224;28;20106;-79
2023/08/10 00:26:15;;;;;;;4.33;3.70;;;22.70;83.50;;;;;;4993831;28;20041;-79
2023/08/10 00:28:41;;;;;;;3.67;3.33;;;22.80;82.90;;;;;;4981820;28;20416;-79
2023/08/10 00:31:07;;;;;;;7.07;3.80;;;22.70;83.00;;;;;;4976081;28;20026;-80
2023/08/10 00:33:34;;;;;;;6.27;3.07;;;22.60;83.40;;;;;;4953858;28;20048;-79
2023/08/10 00:36:06;;;;;;;9.20;4.65;;;22.60;83.50;;;;;;4976816;28;20121;-79
2023/08/10 00:38:37;;;;;;;4.10;3.70;;;22.50;83.80;;;;;;4964140;28;20065;-79
2023/08/10 00:41:03;;;;;;;10.75;4.03;;;22.50;83.80;;;;;;4978622;28;20030;-79
2023/08/10 00:43:29;;;;;;;5.75;3.75;;;22.50;84.20;;;;;;4987956;28;20507;-79
2023/08/10 00:45:55;;;;;;;6.03;3.70;;;22.50;84.70;;;;;;4998888;28;20031;-79
2023/08/10 00:48:23;;;;;;;6.60;4.38;;;22.40;85.00;;;;;;4964266;28;20042;-79
2023/08/10 00:50:49;;;;;;;6.43;4.18;;;22.40;85.10;;;;;;4945450;28;20030;-79
2023/08/10 00:53:17;;;;;;;3.92;3.58;;;22.40;85.80;;;;;;4978964;28;20023;-80
2023/08/10 00:55:43;;;;;;;4.22;3.83;;;22.30;85.60;;;;;;4978985;28;20401;-79
2023/08/10 00:58:13;;;;;;;4.77;4.17;;;22.30;86.10;;;;;;4960802;28;20493;-79
2023/08/10 01:00:39;;;;;;;6.40;4.45;;;22.30;85.80;;;;;;4976861;28;20393;-80
2023/08/10 01:03:05;;;;;;;9.73;4.72;;;22.30;86.30;;;;;;4964223;28;20088;-79
2023/08/10 01:05:38;;;;;;;4.47;3.85;;;22.30;86.00;;;;;;4979989;28;20584;-79
2023/08/10 01:08:15;;;;;;;4.97;3.85;;;22.20;86.10;;;;;;4997813;28;20460;-79
2023/08/10 01:10:50;;;;;;;4.88;3.60;;;22.20;86.20;;;;;;4980254;28;20400;-79
2023/08/10 01:13:37;;;;;;;4.55;4.15;;;22.20;84.90;;;;;;4995620;28;20460;-79
2023/08/10 01:16:08;;;;;;;6.35;4.47;;;22.20;85.60;;;;;;4973193;28;20022;-79
2023/08/10 01:18:35;;;;;;;7.68;4.03;;;22.20;85.20;;;;;;4970902;28;20052;-79
2023/08/10 01:21:07;;;;;;;4.75;3.50;;;22.20;86.20;;;;;;4978683;28;21220;-79
2023/08/10 01:23:41;;;;;;;5.47;3.50;;;22.20;85.60;;;;;;4960857;28;20035;-79
2023/08/10 01:26:10;;;;;;;4.72;3.55;;;22.20;85.20;;;;;;4953897;28;20046;-80
2023/08/10 01:28:36;;;;;;;4.88;3.30;;;22.20;86.10;;;;;;4974959;28;20054;-79
2023/08/10 01:31:02;;;;;;;7.20;4.20;;;22.20;86.30;;;;;;4980678;28;20059;-79
2023/08/10 01:33:29;;;;;;;4.13;3.63;;;22.20;86.10;;;;;;4962786;28;20751;-79
2023/08/10 01:35:55;;;;;;;5.57;4.38;;;22.10;86.00;;;;;;4986356;28;20019;-79
2023/08/10 01:38:24;;;;;;;6.43;4.20;;;22.10;86.20;;;;;;4975282;28;20037;-79
2023/08/10 01:40:51;;;;;;;4.45;3.95;;;22.10;86.30;;;;;;4947613;28;20027;-79
2023/08/10 01:43:17;;;;;;;8.80;3.80;;;22.20;85.60;;;;;;4994113;28;20087;-80
2023/08/10 01:45:49;;;;;;;4.90;4.40;;;22.10;85.70;;;;;;4971004;28;20030;-79
2023/08/10 01:48:26;;;;;;;6.18;3.47;;;22.10;85.40;;;;;;4978927;28;20106;-79
2023/08/10 01:50:53;;;;;;;4.57;3.67;;;22.10;83.70;;;;;;4974775;28;20099;-80
2023/08/10 01:53:26;;;;;;;4.25;3.78;;;22.10;85.30;;;;;;4978357;28;20023;-79
2023/08/10 01:55:52;;;;;;;3.42;3.08;;;22.10;84.40;;;;;;4954405;28;20030;-79
2023/08/10 01:58:19;;;;;;;4.53;3.83;;;22.10;85.70;;;;;;4964533;28;20031;-79
2023/08/10 02:00:45;;;;;;;5.20;3.88;;;22.10;85.70;;;;;;4973060;28;20113;-82
2023/08/10 02:03:11;;;;;;;5.23;3.90;;;22.00;85.30;;;;;;4974220;28;20038;-79
2023/08/10 02:05:37;;;;;;;7.97;3.73;;;22.00;85.40;;;;;;4981694;28;20258;-79
2023/08/10 02:08:04;;;;;;;4.53;3.75;;;22.00;85.50;;;;;;4970959;28;20069;-79
2023/08/10 02:10:29;;;;;;;5.10;3.92;;;22.00;85.00;;;;;;4963637;28;20512;-79
2023/08/10 02:12:55;;;;;;;6.23;3.83;;;22.00;84.70;;;;;;4972579;28;20034;-79
2023/08/10 02:15:21;;;;;;;6.03;4.28;;;22.00;85.00;;;;;;4969906;28;20034;-79
2023/08/10 02:17:47;;;;;;;4.78;3.70;;;22.00;85.20;;;;;;4969155;28;20417;-79
2023/08/10 02:20:13;;;;;;;5.47;4.13;;;22.00;85.20;;;;;;4982068;28;20034;-79
2023/08/10 02:22:46;;;;;;;6.47;4.03;;;21.90;85.30;;;;;;4987204;28;20026;-79
2023/08/10 02:25:12;;;;;;;5.88;4.25;;;21.90;83.90;;;;;;4953372;28;20070;-80
2023/08/10 02:27:40;;;;;;;6.33;4.37;;;21.80;85.50;;;;;;4978013;28;20117;-80
2023/08/10 02:30:07;;;;;;;5.22;4.35;;;21.80;85.80;;;;;;4987443;28;20034;-80
2023/08/10 02:32:33;;;;;;;;;;;21.80;85.80;;;;;;4974939;28;20375;-80
2023/08/10 02:34:59;;;;;;;5.90;4.35;;;21.80;84.20;;;;;;5003230;28;20013;-80
2023/08/10 02:37:26;;;;;;;5.55;3.88;;;21.80;85.50;;;;;;4960501;28;20081;-80
2023/08/10 02:39:52;;;;;;;9.90;5.10;;;21.80;86.10;;;;;;4991161;28;20289;-80
2023/08/10 02:42:18;;;;;;;5.60;4.18;;;21.80;86.00;;;;;;4983961;28;20046;-80
2023/08/10 02:44:44;;;;;;;9.68;4.80;;;21.80;85.80;;;;;;4993959;28;20056;-80
2023/08/10 02:47:12;;;;;;;5.88;4.28;;;21.80;85.80;;;;;;4972942;28;20033;-79
2023/08/10 02:49:38;;;;;;;5.57;5.03;;;21.70;86.10;;;;;;5000201;28;20042;-80
2023/08/10 02:52:05;;;;;;;4.53;4.13;;;21.80;86.10;;;;;;4958934;28;20054;-80
2023/08/10 02:54:31;;;;;;;6.40;5.18;;;21.70;85.90;;;;;;4977519;28;20018;-80
2023/08/10 02:56:57;;;;;;;6.38;4.63;;;21.70;86.00;;;;;;4985377;28;20070;-81
2023/08/10 02:59:23;;;;;;;6.87;4.90;;;21.70;86.00;;;;;;4993733;28;20034;-80
2023/08/10 03:01:49;;;;;;;5.35;4.68;;;21.70;85.90;;;;;;4975609;28;20042;-79
2023/08/10 03:04:15;;;;;;;7.63;4.27;;;21.70;86.20;;;;;;4974323;28;20065;-80
2023/08/10 03:06:41;;;;;;;5.93;4.87;;;21.70;86.00;;;;;;4974906;28;20047;-80
2023/08/10 03:09:07;;;;;;;4.93;4.30;;;21.70;86.00;;;;;;4989027;28;20504;-79
2023/08/10 03:11:33;;;;;;;7.63;5.07;;;21.70;86.10;;;;;;4972864;28;20433;-80
2023/08/10 03:13:59;;;;;;;5.77;5.10;;;21.60;86.30;;;;;;4982950;28;20077;-79
2023/08/10 03:16:26;;;;;;;;;;;21.60;86.30;;;;;;4981141;28;20448;-80
2023/08/10 03:18:52;;;;;;;6.75;4.90;;;21.60;83.60;;;;;;4972996;28;19910;-80
2023/08/10 03:21:18;;;;;;;6.53;5.20;;;21.60;85.80;;;;;;4976787;28;20452;-80
2023/08/10 03:23:46;;;;;;;9.90;6.10;;;21.60;86.20;;;;;;4973368;28;20066;-81
2023/08/10 03:26:12;;;;;;;9.10;5.63;;;21.60;86.20;;;;;;4989114;28;20061;-80
2023/08/10 03:28:38;;;;;;;12.98;6.63;;;21.60;86.60;;;;;;4973815;28;20430;-80
2023/08/10 03:31:04;;;;;;;5.90;5.20;;;21.60;86.70;;;;;;4968832;28;20035;-80
2023/08/10 03:33:30;;;;;;;8.90;6.07;;;21.50;86.70;;;;;;4975711;28;20632;-80
2023/08/10 03:35:56;;;;;;;6.85;5.80;;;21.50;87.20;;;;;;4999640;28;20026;-80
2023/08/10 03:38:23;;;;;;;;;;;21.50;87.10;;;;;;4983684;28;20034;-80
2023/08/10 03:40:48;;;;;;;6.47;5.68;;;21.50;84.90;;;;;;4997311;28;19914;-80
2023/08/10 03:43:15;;;;;;;7.43;5.72;;;21.40;86.90;;;;;;4993003;28;20537;-80
2023/08/10 03:45:40;;;;;;;8.02;5.88;;;21.40;87.10;;;;;;4987975;28;20054;-80
2023/08/10 03:48:06;;;;;;;6.50;5.43;;;21.30;87.10;;;;;;4976292;28;20046;-81
2023/08/10 03:50:32;;;;;;;9.85;6.35;;;21.30;87.30;;;;;;4950812;28;20453;-81
2023/08/10 03:52:58;;;;;;;9.30;6.30;;;21.30;87.70;;;;;;4979441;28;20026;-81
2023/08/10 03:55:25;;;;;;;7.53;5.40;;;21.20;87.50;;;;;;4982193;28;20381;-80
2023/08/10 03:57:51;;;;;;;8.85;6.43;;;21.20;87.70;;;;;;5005544;28;20023;-81
2023/08/10 04:00:17;;;;;;;9.38;6.03;;;21.20;88.50;;;;;;4978620;28;20034;-80
2023/08/10 04:02:44;;;;;;;11.70;7.03;;;21.20;88.80;;;;;;4992615;28;20062;-80
2023/08/10 04:05:10;;;;;;;9.52;6.40;;;21.10;88.30;;;;;;4970761;28;20035;-80
2023/08/10 04:07:37;;;;;;;8.13;6.03;;;21.10;88.10;;;;;;4970123;28;20071;-80
2023/08/10 04:10:05;;;;;;;7.20;6.18;;;21.10;87.90;;;;;;4972198;28;20066;-79
2023/08/10 04:12:36;;;;;;;7.78;6.05;;;21.10;88.30;;;;;;4971374;28;20501;-80
2023/08/10 04:15:02;;;;;;;7.18;6.47;;;21.10;88.40;;;;;;4970165;28;20038;-80
2023/08/10 04:17:28;;;;;;;;;;;21.10;88.60;;;;;;4971556;28;20019;-79
2023/08/10 04:19:56;;;;;;;8.00;6.60;;;21.00;87.90;;;;;;4987478;28;19921;-79
2023/08/10 04:22:22;;;;;;;7.10;6.40;;;21.00;89.20;;;;;;4969504;28;20102;-80
2023/08/10 04:24:49;;;;;;;8.40;7.57;;;20.90;89.40;;;;;;4989517;28;20058;-80
2023/08/10 04:27:16;;;;;;;10.90;7.80;;;21.00;89.80;;;;;;4990137;28;20038;-80
2023/08/10 04:29:45;;;;;;;9.55;8.65;;;20.90;90.20;;;;;;4971849;28;20030;-80
2023/08/10 04:32:13;;;;;;;9.93;7.00;;;21.00;90.10;;;;;;4990695;28;20047;-80
2023/08/10 04:34:39;;;;;;;10.45;7.35;;;21.00;90.10;;;;;;4990587;28;20037;-80
2023/08/10 04:37:06;;;;;;;12.97;8.50;;;20.90;90.10;;;;;;4955959;28;20030;-80
2023/08/10 04:39:32;;;;;;;11.25;7.40;;;20.90;90.10;;;;;;4955298;28;20035;-79
2023/08/10 04:41:59;;;;;;;10.25;8.05;;;20.90;90.30;;;;;;4956426;28;20034;-80
2023/08/10 04:44:25;;;;;;;10.18;8.65;;;20.90;90.30;;;;;;4989391;28;20037;-80
2023/08/10 04:46:51;;;;;;;8.43;7.47;;;20.90;90.40;;;;;;4989295;28;20058;-80
2023/08/10 04:49:16;;;;;;;12.53;7.33;;;20.90;90.30;;;;;;4971560;28;20093;-80
2023/08/10 04:51:42;;;;;;;8.88;7.95;;;20.90;90.60;;;;;;4988994;28;20062;-80
2023/08/10 04:54:08;;;;;;;9.10;8.05;;;20.90;90.50;;;;;;4971983;28;20559;-80
2023/08/10 04:56:35;;;;;;;9.27;8.38;;;21.00;90.50;;;;;;4970680;28;20027;-80
2023/08/10 04:59:02;;;;;;;;;;;21.00;90.50;;;;;;4989670;28;20034;-80
2023/08/10 05:01:28;;;;;;;12.30;8.85;;;20.90;91.70;;;;;;4971534;28;19929;-80
2023/08/10 05:03:55;;;;;;;10.15;9.23;;;20.80;91.50;;;;;;4971298;28;20042;-80
2023/08/10 05:06:21;;;;;;;10.05;8.52;;;20.70;91.80;;;;;;4988294;28;20589;-80
2023/08/10 05:08:47;;;;;;;10.40;8.40;;;20.70;91.90;;;;;;4987563;28;20031;-80
2023/08/10 05:11:13;;;;;;;9.88;8.88;;;20.70;91.90;;;;;;4989255;28;20034;-80
2023/08/10 05:13:40;;;;;;;10.40;9.00;;;20.80;91.80;;;;;;4970271;28;20041;-80
2023/08/10 05:16:07;;;;;;;15.68;10.45;;;20.80;92.00;;;;;;4989025;28;20019;-80
2023/08/10 05:18:33;;;;;;;11.98;10.13;;;20.90;92.00;;;;;;4988374;28;20043;-80
2023/08/10 05:21:02;;;;;;;14.90;10.07;;;20.90;92.10;;;;;;4988413;28;20058;-80
2023/08/10 05:23:28;;;;;;;11.07;9.98;;;20.80;92.70;;;;;;4981050;28;20066;-79
2023/08/10 05:25:54;;;;;;;13.43;9.40;;;20.80;92.70;;;;;;4946731;28;20023;-80
2023/08/10 05:28:20;;;;;;;13.18;10.30;;;20.90;92.40;;;;;;4958679;28;20031;-80
2023/08/10 05:30:46;;;;;;;12.43;10.38;;;20.90;92.40;;;;;;4981071;28;20030;-80
2023/08/10 05:33:11;;;;;;;11.02;9.13;;;21.00;92.50;;;;;;4965397;28;20087;-80
2023/08/10 05:35:37;;;;;;;10.35;9.18;;;21.00;92.40;;;;;;4983662;28;20514;-80
2023/08/10 05:38:03;;;;;;;13.23;9.65;;;21.10;92.50;;;;;;4983666;28;20037;-80
2023/08/10 05:40:29;;;;;;;12.73;10.27;;;21.10;92.30;;;;;;4973519;28;20042;-80
2023/08/10 05:42:55;;;;;;;12.15;9.80;;;21.30;92.40;;;;;;4970704;28;20015;-80
2023/08/10 05:45:21;;;;;;;15.80;10.63;;;21.30;92.30;;;;;;4987149;28;20046;-80
2023/08/10 05:47:50;;;;;;;10.30;9.33;;;21.40;92.20;;;;;;4984615;28;20030;-80
2023/08/10 05:50:16;;;;;;;11.15;9.90;;;21.50;91.80;;;;;;4983011;28;20253;-79
2023/08/10 05:52:45;;;;;;;9.93;8.30;;;21.60;91.70;;;;;;4986075;28;20082;-80
2023/08/10 05:55:13;;;;;;;12.00;9.10;;;21.60;91.50;;;;;;4965813;28;20022;-79
2023/08/10 05:57:39;;;;;;;9.40;8.27;;;21.70;91.60;;;;;;4981439;28;20088;-79
2023/08/10 06:00:06;;;;;;;14.30;9.65;;;21.80;91.30;;;;;;4947987;28;20030;-79
2023/08/10 06:02:38;;;;;;;10.48;8.68;;;21.90;91.80;;;;;;4963299;28;20034;-79
2023/08/10 06:05:06;;;;;;;12.45;8.77;;;21.90;91.50;;;;;;4979582;28;20050;-80
2023/08/10 06:07:33;;;;;;;9.00;8.20;;;22.00;91.50;;;;;;4963931;28;20081;-79
2023/08/10 06:09:59;;;;;;;11.75;8.95;;;22.00;91.40;;;;;;4980003;28;20034;-79
2023/08/10 06:12:25;;;;;;;11.95;8.80;;;22.10;91.30;;;;;;4977745;28;20031;-82
2023/08/10 06:14:51;;;;;;;11.63;8.50;;;22.10;91.40;;;;;;4985550;28;20975;-82
2023/08/10 06:17:17;;;;;;;9.15;8.30;;;22.20;91.30;;;;;;4943509;28;20511;-82
2023/08/10 06:19:53;;;;;;;11.97;8.60;;;22.30;91.40;;;;;;4976640;28;20042;-83
2023/08/10 06:22:19;;;;;;;11.98;9.15;;;22.30;91.60;;;;;;4974733;28;20524;-81
2023/08/10 06:24:46;;;;;;;11.05;8.05;;;22.40;91.50;;;;;;4957048;28;20404;-82
2023/08/10 06:27:12;;;;;;;9.18;8.27;;;22.40;91.30;;;;;;4973919;28;20030;-83
2023/08/10 06:29:39;;;;;;;7.70;6.88;;;22.50;91.00;;;;;;4956091;28;20410;-83
2023/08/10 06:32:07;;;;;;;7.78;6.72;;;22.50;90.60;;;;;;4973460;28;20035;-82
2023/08/10 06:34:33;;;;;;;7.78;6.97;;;22.60;90.40;;;;;;4973344;28;20054;-82
2023/08/10 06:36:59;;;;;;;8.93;7.03;;;22.60;90.00;;;;;;4973366;28;20035;-82
2023/08/10 06:39:27;;;;;;;9.47;8.27;;;22.70;89.90;;;;;;4940151;28;20038;-82
2023/08/10 06:41:53;;;;;;;12.93;7.68;;;22.70;90.10;;;;;;4976139;28;20701;-80
2023/08/10 06:44:20;;;;;;;8.52;7.63;;;22.70;89.90;;;;;;4971842;28;20103;-81
2023/08/10 06:46:46;;;;;;;7.00;6.37;;;22.70;89.80;;;;;;5003326;28;20053;-83
2023/08/10 06:49:12;;;;;;;194.90;36.23;;;22.80;89.80;;;;;;4971883;28;20034;-79
2023/08/10 06:51:38;;;;;;;22.77;11.27;;;22.90;90.70;;;;;;4985508;28;20034;-80
2023/08/10 06:54:04;;;;;;;10.67;8.60;;;22.80;91.30;;;;;;5002888;28;20022;-80
2023/08/10 06:56:30;;;;;;;11.33;6.23;;;22.80;91.10;;;;;;5002372;28;20030;-81
2023/08/10 06:58:56;;;;;;;11.30;6.20;;;22.80;90.40;;;;;;5004447;28;20098;-85
2023/08/10 07:01:22;;;;;;;7.67;6.37;;;22.80;90.60;;;;;;4985945;28;20026;-85
2023/08/10 07:03:48;;;;;;;6.20;5.60;;;22.90;90.20;;;;;;5001623;28;20088;-85
2023/08/10 07:06:14;;;;;;;8.93;5.38;;;22.90;89.80;;;;;;4985064;28;20088;-84
2023/08/10 07:08:40;;;;;;;7.63;4.90;;;23.00;88.50;;;;;;5002469;28;20030;-86
2023/08/10 07:11:07;;;;;;;6.33;4.90;;;23.10;87.80;;;;;;4973809;28;20025;-85
2023/08/10 07:13:33;;;;;;;5.88;5.28;;;23.20;86.40;;;;;;5021638;28;20034;-85
2023/08/10 07:15:58;;;;;;;7.43;4.80;;;23.20;86.10;;;;;;5002224;28;20060;-85
2023/08/10 07:18:24;;;;;;;4.87;4.47;;;23.40;85.70;;;;;;5021218;28;20038;-84
2023/08/10 07:20:50;;;;;;;12.37;4.83;;;23.40;84.10;;;;;;5003557;28;20030;-82
2023/08/10 07:23:20;;;;;;;17.70;5.17;;;23.60;84.30;;;;;;5019221;28;20034;-84
2023/08/10 07:25:46;;;;;;;7.90;4.63;;;23.60;83.70;;;;;;5000726;28;20120;-84
2023/08/10 07:28:12;;;;;;;4.13;3.73;;;23.70;82.20;;;;;;5017627;28;20515;-84
2023/08/10 07:30:38;;;;;;;6.37;3.83;;;23.80;81.60;;;;;;5000446;28;20030;-84
2023/08/10 07:33:04;;;;;;;10.73;4.03;;;23.80;81.40;;;;;;4984380;28;20044;-84
2023/08/10 07:35:30;;;;;;;4.50;3.47;;;23.90;80.60;;;;;;4983749;28;20026;-84
2023/08/10 07:37:56;;;;;;;6.10;3.47;;;23.90;80.30;;;;;;5017959;28;20028;-82
2023/08/10 07:40:22;;;;;;;4.73;3.30;;;24.10;80.00;;;;;;5017203;28;20034;-83
2023/08/10 07:42:48;;;;;;;8.80;3.53;;;24.10;80.20;;;;;;4999768;28;20022;-83
2023/08/10 07:45:14;;;;;;;4.50;2.97;;;24.10;78.90;;;;;;4999546;28;20061;-84
2023/08/10 07:47:41;;;;;;;4.43;3.33;;;24.20;78.30;;;;;;5000386;28;20036;-81
2023/08/10 07:50:07;;;;;;;5.10;2.97;;;24.20;78.20;;;;;;5017240;28;20052;-81
2023/08/10 07:52:33;;;;;;;9.02;3.05;;;24.30;78.30;;;;;;4975337;28;20056;-81
2023/08/10 07:54:59;;;;;;;4.40;2.40;;;24.30;77.30;;;;;;4981575;28;20500;-81
2023/08/10 07:57:24;;;;;;;3.27;2.70;;;24.40;76.50;;;;;;4981306;28;20026;-81
2023/08/10 07:59:50;;;;;;;3.67;2.97;;;24.50;76.30;;;;;;4980343;28;21356;-81
2023/08/10 08:02:16;;;;;;;3.33;3.03;;;24.60;76.90;;;;;;4962588;28;20035;-82
2023/08/10 08:04:42;;;;;;;7.93;3.20;;;24.60;77.00;;;;;;4961549;28;20035;-81
2023/08/10 08:07:08;;;;;;;3.90;2.77;;;24.70;76.30;;;;;;4980502;28;20142;-82
2023/08/10 08:09:34;;;;;;;4.03;2.30;;;24.70;76.30;;;;;;4979986;28;20038;-82
2023/08/10 08:12:00;;;;;;;5.30;3.00;;;24.70;76.10;;;;;;4962622;28;20453;-81
2023/08/10 08:14:25;;;;;;;4.03;2.60;;;24.80;75.10;;;;;;4978592;28;20485;-83
2023/08/10 08:16:51;;;;;;;5.73;2.50;;;24.80;75.20;;;;;;4981163;28;20037;-85
2023/08/10 08:19:18;;;;;;;6.70;2.87;;;24.90;75.20;;;;;;4979808;28;20035;-84
2023/08/10 08:21:46;;;;;;;4.05;2.70;;;24.90;75.30;;;;;;4947626;28;20405;-82
2023/08/10 08:24:12;;;;;;;8.23;2.90;;;24.90;75.40;;;;;;4987367;23;20046;-79
2023/08/10 08:26:40;;;;;;;7.20;3.05;;;25.00;75.00;;;;;;4997159;28;20060;-80
2023/08/10 08:29:06;;;;;;;6.95;2.65;;;25.10;75.20;;;;;;5013621;28;20037;-79
2023/08/10 08:31:33;;;;;;;5.43;2.55;;;25.20;74.40;;;;;;5014796;28;20022;-79
2023/08/10 08:33:59;;;;;;;;;;;25.30;74.20;;;;;;5016006;28;20109;-80
2023/08/10 08:36:25;;;;;;;6.35;2.10;;;25.30;73.60;;;;;;4997075;28;20450;-79
2023/08/10 08:38:51;;;;;;;4.70;3.03;;;25.30;74.10;;;;;;4997325;28;20045;-80
2023/08/10 08:41:18;;;;;;;4.27;2.10;;;25.50;73.10;;;;;;5015516;28;20550;-79
2023/08/10 08:43:45;;;;;;;5.53;2.70;;;25.50;73.10;;;;;;5015087;28;20096;-79
2023/08/10 08:46:12;;;;;;;5.25;2.90;;;25.60;72.50;;;;;;4998052;28;20036;-80
2023/08/10 08:48:38;;;;;;;5.25;2.20;;;25.60;73.10;;;;;;4999285;28;20044;-79
2023/08/10 08:51:05;;;;;;;4.73;2.03;;;25.70;72.20;;;;;;4998923;28;20038;-80
2023/08/10 08:53:32;;;;;;;;;;;25.70;72.40;;;;;;5016637;28;20025;-80
2023/08/10 08:55:58;;;;;;;3.28;2.03;;;25.80;71.40;;;;;;4998564;28;20368;-80
2023/08/10 08:58:24;;;;;;;8.13;2.17;;;25.70;71.60;;;;;;4980416;28;20037;-80
2023/08/10 09:00:54;;;;;;;5.90;1.90;;;25.80;71.70;;;;;;5015003;28;20030;-80
2023/08/10 09:03:22;;;;;;;10.52;3.08;;;25.90;71.00;;;;;;4998930;28;20038;-80
2023/08/10 09:05:49;;;;;;;5.30;1.60;;;26.00;70.30;;;;;;4998164;28;20030;-80
2023/08/10 09:08:16;;;;;;;3.88;1.73;;;26.00;69.60;;;;;;4997598;28;20057;-80
2023/08/10 09:10:46;;;;;;;3.42;1.65;;;26.20;68.60;;;;;;5014714;28;20446;-80
2023/08/10 09:13:18;;;;;;;3.03;1.40;;;26.20;68.50;;;;;;4996854;28;20022;-80
2023/08/10 09:15:45;;;;;;;3.95;1.92;;;26.30;67.70;;;;;;4996029;28;20117;-80
2023/08/10 09:18:11;;;;;;;2.95;2.30;;;26.30;67.90;;;;;;4980005;28;20022;-80
2023/08/10 09:20:37;;;;;;;2.25;1.45;;;26.30;68.80;;;;;;4996642;28;20435;-80
2023/08/10 09:23:03;;;;;;;8.87;1.83;;;26.40;68.90;;;;;;5014108;28;20018;-80
2023/08/10 09:25:38;;;;;;;3.00;1.58;;;26.50;67.80;;;;;;4996047;28;20377;-80
2023/08/10 09:28:12;;;;;;;6.95;1.60;;;26.60;66.60;;;;;;5013714;28;20030;-80
2023/08/10 09:30:38;;;;;;;9.15;2.47;;;26.60;67.20;;;;;;4980136;28;20088;-79
2023/08/10 09:33:04;;;;;;;2.43;1.80;;;26.60;66.20;;;;;;5013633;28;20088;-80
2023/08/10 09:35:31;;;;;;;2.88;1.90;;;26.70;66.00;;;;;;5014380;28;20033;-80
2023/08/10 09:38:04;;;;;;;1.80;1.40;;;26.70;66.40;;;;;;4995522;28;20029;-79
2023/08/10 09:40:30;;;;;;;3.53;1.75;;;26.80;66.10;;;;;;4979803;28;20185;-80
2023/08/10 09:42:56;;;;;;;2.20;1.20;;;26.90;65.20;;;;;;5013637;28;20045;-80
2023/08/10 09:45:22;;;;;;;2.20;1.50;;;27.00;64.40;;;;;;5013714;28;20065;-80
2023/08/10 09:47:48;;;;;;;3.23;1.60;;;27.10;63.80;;;;;;4995949;28;20063;-80
2023/08/10 09:50:16;;;;;;;3.20;1.48;;;27.10;63.90;;;;;;5013659;28;20038;-80
2023/08/10 09:52:43;;;;;;;1.98;1.63;;;27.00;64.50;;;;;;4995953;28;20092;-80
2023/08/10 09:55:10;;;;;;;2.53;1.40;;;27.10;62.80;;;;;;4995867;28;20409;-80
2023/08/10 09:57:40;;;;;;;3.92;1.30;;;27.20;61.30;;;;;;5013371;28;20108;-80
2023/08/10 10:00:14;;;;;;;5.95;1.60;;;27.20;60.30;;;;;;4979404;28;20041;-80
2023/08/10 10:02:40;;;;;;;3.90;1.42;;;27.20;62.50;;;;;;4995336;28;20499;-80
2023/08/10 10:05:07;;;;;;;1.88;1.20;;;27.20;61.00;;;;;;4995446;28;20373;-80
2023/08/10 10:07:33;;;;;;;3.20;2.15;;;27.20;61.80;;;;;;5014005;28;20112;-80
2023/08/10 10:10:00;;;;;;;3.08;1.52;;;27.30;61.20;;;;;;5013113;28;20068;-80
2023/08/10 10:12:28;;;;;;;1.85;1.15;;;27.40;60.20;;;;;;4979620;28;20152;-79
2023/08/10 10:14:54;;;;;;;4.82;1.10;;;27.50;59.00;;;;;;4995718;28;20030;-79
2023/08/10 10:17:21;;;;;;;;;;;27.60;59.20;;;;;;5013608;28;20032;-79
2023/08/10 10:19:51;;;;;;;5.07;1.40;;;27.60;58.80;;;;;;5013497;28;19905;-80
2023/08/10 10:22:18;;;;;;;7.22;2.35;;;27.60;59.40;;;;;;5013520;28;20092;-80
2023/08/10 10:24:44;;;;;;;1.83;1.38;;;27.70;59.30;;;;;;4995325;28;20030;-79
2023/08/10 10:27:11;;;;;;;4.83;2.20;;;27.70;59.70;;;;;;5013715;28;20026;-81
2023/08/10 10:29:57;;;;;;;4.57;2.05;;;27.80;60.30;;;;;;5012971;28;20435;-79
2023/08/10 10:32:24;;;;;;;3.75;2.00;;;27.80;60.30;;;;;;5013439;28;20030;-79
2023/08/10 10:34:52;;;;;;;3.30;2.00;;;27.70;61.00;;;;;;5015880;28;20037;-81
2023/08/10 10:37:21;;;;;;;3.85;2.03;;;27.80;61.10;;;;;;5014437;28;20053;-82
2023/08/10 10:39:51;;;;;;;7.40;1.80;;;27.90;60.60;;;;;;4998114;28;20083;-80
2023/08/10 10:42:18;;;;;;;3.25;1.55;;;27.90;61.40;;;;;;5012157;28;20035;-80
2023/08/10 10:45:03;;;;;;;2.05;1.50;;;28.00;61.30;;;;;;4997449;28;20034;-81
2023/08/10 10:47:48;;;;;;;2.05;1.50;;;28.10;60.90;;;;;;4999388;28;20034;-80
2023/08/10 10:50:22;;;;;;;5.25;1.60;;;28.30;62.00;;;;;;4986878;28;20038;-81
2023/08/10 10:53:00;;;;;;;2.13;1.73;;;28.30;61.30;;;;;;4986056;28;20056;-82
2023/08/10 10:55:43;;;;;;;8.05;1.98;;;28.40;60.30;;;;;;5010352;28;20022;-81
2023/08/10 10:58:14;;;;;;;2.35;1.48;;;28.50;59.40;;;;;;5000099;28;20037;-83
2023/08/10 11:00:43;;;;;;;8.10;1.30;;;28.50;59.30;;;;;;5005476;28;20029;-83
2023/08/10 11:03:10;;;;;;;3.15;1.63;;;28.50;58.50;;;;;;4995617;28;20037;-81
2023/08/10 11:05:37;;;;;;;4.18;1.30;;;28.60;58.90;;;;;;5001794;28;20515;-84
2023/08/10 11:08:05;;;;;;;2.38;1.52;;;28.60;58.30;;;;;;4991014;28;20397;-83
2023/08/10 11:10:36;;;;;;;8.52;1.30;;;28.70;59.80;;;;;;4985901;28;20052;-83
2023/08/10 11:13:10;;;;;;;5.90;1.42;;;28.80;60.00;;;;;;4990540;28;20041;-83
2023/08/10 11:15:39;;;;;;;1.25;1.00;;;28.90;58.80;;;;;;4996753;28;20076;-80
2023/08/10 11:18:12;;;;;;;2.95;2.20;;;29.00;59.10;;;;;;5000671;28;20026;-82
2023/08/10 11:20:48;;;;;;;3.15;2.22;;;29.10;59.20;;;;;;5004418;28;20026;-83
2023/08/10 11:23:15;;;;;;;3.33;1.30;;;29.10;57.10;;;;;;4995930;28;20022;-84
2023/08/10 11:25:48;;;;;;;2.55;1.73;;;29.20;58.20;;;;;;4982628;28;20041;-84
2023/08/10 11:28:17;;;;;;;1.63;1.40;;;29.20;57.60;;;;;;4974714;28;20548;-84
2023/08/10 11:30:43;;;;;;;2.88;1.35;;;29.30;57.70;;;;;;4992736;28;20504;-85
2023/08/10 11:33:10;;;;;;;4.20;1.55;;;29.50;58.00;;;;;;4988275;28;20374;-84
2023/08/10 11:35:35;;;;;;;;;;;29.70;57.10;;;;;;4983547;28;20030;-84
2023/08/10 11:38:01;;;;;;;5.35;1.92;;;29.80;56.70;;;;;;4995425;28;19921;-85
2023/08/10 11:40:27;;;;;;;3.78;1.60;;;29.90;55.10;;;;;;4991837;28;20033;-84
2023/08/10 11:43:10;;;;;;;2.10;1.20;;;29.90;54.80;;;;;;5018628;28;20026;-83
2023/08/10 11:45:39;;;;;;;6.18;1.02;;;30.00;56.20;;;;;;4987525;28;20033;-83
2023/08/10 11:48:07;;;;;;;2.97;1.33;;;30.00;55.20;;;;;;4995119;28;20048;-83
2023/08/10 11:50:33;;;;;;;4.03;1.20;;;30.00;54.60;;;;;;4989997;28;20036;-85
2023/08/10 11:53:10;;;;;;;6.40;1.60;;;30.20;54.70;;;;;;4983978;28;20026;-83
2023/08/10 11:55:40;;;;;;;;;;;30.30;54.60;;;;;;4997750;28;20527;-84
2023/08/10 11:58:07;;;;;;;1.98;1.40;;;30.50;54.40;;;;;;4994934;28;20391;-83
2023/08/10 12:00:34;;;;;;;3.13;1.10;;;30.40;54.60;;;;;;4965782;28;20563;-83
2023/08/10 12:03:13;;;;;;;2.20;1.13;;;30.20;54.50;;;;;;4982825;28;20037;-82
2023/08/10 12:05:45;;;;;;;3.50;1.23;;;30.00;55.10;;;;;;4966809;28;20486;-83
2023/08/10 12:08:30;;;;;;;3.53;1.48;;;30.10;55.60;;;;;;5018090;28;20065;-83
2023/08/10 12:11:06;;;;;;;2.47;1.30;;;30.50;55.20;;;;;;4986713;28;20460;-83
2023/08/10 12:13:33;;;;;;;1.80;1.00;;;30.80;55.00;;;;;;4995659;28;20072;-84
2023/08/10 12:16:02;;;;;;;4.43;2.03;;;31.10;54.50;;;;;;4984181;28;20076;-83
2023/08/10 12:18:28;;;;;;;4.57;1.20;;;31.10;52.70;;;;;;4993102;28;20022;-83
2023/08/10 12:20:54;;;;;;;3.13;1.23;;;31.10;53.80;;;;;;4993208;28;20064;-84
2023/08/10 12:23:20;;;;;;;;;;;31.30;52.90;;;;;;4985153;28;20274;-83
2023/08/10 12:25:48;;;;;;;1.52;1.20;;;31.40;53.10;;;;;;4998488;28;19913;-84
2023/08/10 12:28:16;;;;;;;1.63;1.13;;;31.40;52.60;;;;;;4985288;28;20516;-83
2023/08/10 12:30:44;;;;;;;12.55;2.38;;;31.30;52.10;;;;;;4994597;28;20076;-83
2023/08/10 12:33:11;;;;;;;4.80;1.40;;;31.40;51.60;;;;;;4964243;28;20029;-83
2023/08/10 12:35:37;;;;;;;;;;;31.50;51.70;;;;;;4996395;28;20106;-83
2023/08/10 12:38:04;;;;;;;5.47;1.58;;;31.70;51.30;;;;;;4979718;28;19953;-83
2023/08/10 12:40:30;;;;;;;;;;;31.80;51.60;;;;;;4979628;28;20489;-83
2023/08/10 12:42:55;;;;;;;2.67;1.35;;;31.80;50.40;;;;;;4997914;28;20380;-82
2023/08/10 12:45:22;;;;;;;3.25;1.30;;;31.90;51.10;;;;;;4997678;28;20040;-84
2023/08/10 12:47:48;;;;;;;3.78;1.60;;;32.00;50.60;;;;;;4981472;28;20041;-83
2023/08/10 12:50:16;;;;;;;3.85;1.65;;;32.10;50.40;;;;;;4983003;28;20504;-83